Time;durP1;ratioP1;P1;durP2;ratioP2;P2;SDS_P1;SDS_P2;PMS_P1;PMS_P2;Temp;Humidity;BMP_temperature;BMP_pressure;BME280_temperature;BME280_humidity;BME280_pressure;Samples;Min_cycle;Max_cycle;Signal;HPM_P1;HPM_P2
2023/04/14 00:00:19;;;;;;;7.43;1.70;;;19.30;55.40;;;;;;5091751;28;20122;-65
2023/04/14 00:02:46;;;;;;;4.25;1.48;;;19.30;55.40;;;;;;5092762;28;20042;-65
2023/04/14 00:05:11;;;;;;;3.72;1.23;;;19.30;55.40;;;;;;5092265;28;20487;-65
2023/04/14 00:07:37;;;;;;;4.00;1.45;;;19.30;55.40;;;;;;5091771;28;20096;-65
2023/04/14 00:10:03;;;;;;;2.35;1.10;;;19.30;55.40;;;;;;5092257;28;20036;-65
2023/04/14 00:12:28;;;;;;;3.60;1.20;;;19.30;55.40;;;;;;5092363;28;20467;-64
2023/04/14 00:14:54;;;;;;;4.07;1.17;;;19.20;55.30;;;;;;5091598;28;20048;-66
2023/04/14 00:17:20;;;;;;;6.85;1.30;;;19.20;55.30;;;;;;5092570;28;20509;-65
2023/04/14 00:19:45;;;;;;;3.85;1.27;;;19.30;55.30;;;;;;5092639;28;20041;-65
2023/04/14 00:22:11;;;;;;;3.55;1.05;;;19.30;55.30;;;;;;5091240;28;20101;-65
2023/04/14 00:24:42;;;;;;;5.10;1.73;;;19.30;55.30;;;;;;5092344;28;20044;-65
2023/04/14 00:27:10;;;;;;;2.97;1.08;;;19.20;55.20;;;;;;5092101;28;20044;-65
2023/04/14 00:29:39;;;;;;;2.80;1.15;;;19.20;55.20;;;;;;5091749;28;20039;-65
2023/04/14 00:32:05;;;;;;;5.10;1.50;;;19.20;55.20;;;;;;5092137;28;20115;-65
2023/04/14 00:34:31;;;;;;;3.35;1.27;;;19.20;55.20;;;;;;5092383;28;20043;-65
2023/04/14 00:36:56;;;;;;;3.40;1.17;;;19.20;55.20;;;;;;5091349;28;20040;-65
2023/04/14 00:39:22;;;;;;;5.10;1.33;;;19.20;55.20;;;;;;5092368;28;20048;-65
2023/04/14 00:41:47;;;;;;;3.33;1.27;;;19.10;55.20;;;;;;5091351;28;20044;-65
2023/04/14 00:44:13;;;;;;;3.35;1.20;;;19.20;55.20;;;;;;5090638;28;20036;-64
2023/04/14 00:46:42;;;;;;;4.47;1.17;;;19.10;55.10;;;;;;5091979;28;20051;-64
2023/04/14 00:49:08;;;;;;;4.10;1.30;;;19.10;55.20;;;;;;5073441;28;20518;-64
2023/04/14 00:51:33;;;;;;;3.17;1.00;;;19.10;55.20;;;;;;5092424;28;20052;-65
2023/04/14 00:54:01;;;;;;;2.55;0.95;;;19.10;55.10;;;;;;5071487;28;20044;-65
2023/04/14 00:56:28;;;;;;;3.53;1.27;;;19.10;55.10;;;;;;5071308;28;20049;-65
2023/04/14 00:58:53;;;;;;;3.67;1.05;;;19.10;55.30;;;;;;5090095;28;20040;-65
2023/04/14 01:01:19;;;;;;;2.42;1.08;;;19.10;55.20;;;;;;5090701;28;20093;-65
2023/04/14 01:03:45;;;;;;;3.63;1.00;;;19.10;55.20;;;;;;5073148;28;20127;-65
2023/04/14 01:06:10;;;;;;;3.78;1.20;;;19.10;55.10;;;;;;5090320;28;20124;-65
2023/04/14 01:08:36;;;;;;;1.85;0.98;;;19.10;55.20;;;;;;5106655;28;20424;-65
2023/04/14 01:11:31;;;;;;;3.58;1.27;;;19.10;55.20;;;;;;5111463;28;20451;-64
2023/04/14 01:14:12;;;;;;;3.28;1.00;;;19.10;55.10;;;;;;5100599;28;20058;-65
2023/04/14 01:16:39;;;;;;;3.55;1.20;;;19.00;55.10;;;;;;5112275;28;20044;-64
2023/04/14 01:19:28;;;;;;;3.10;1.00;;;19.10;55.00;;;;;;5109801;28;20486;-64
2023/04/14 01:21:56;;;;;;;2.42;1.02;;;19.10;55.00;;;;;;5111764;28;20052;-64
2023/04/14 01:24:32;;;;;;;3.65;1.00;;;19.10;55.00;;;;;;5095310;28;20138;-64
2023/04/14 01:27:20;;;;;;;2.78;1.00;;;19.10;55.10;;;;;;5096993;28;20047;-64
2023/04/14 01:29:51;;;;;;;2.63;1.10;;;19.10;55.10;;;;;;5115623;28;20044;-65
2023/04/14 01:32:19;;;;;;;2.75;0.80;;;19.10;55.10;;;;;;5114689;28;20131;-64
2023/04/14 01:34:55;;;;;;;2.55;0.90;;;19.10;55.20;;;;;;5114342;28;20509;-64
2023/04/14 01:37:30;;;;;;;2.22;1.00;;;19.00;55.10;;;;;;5114412;28;20039;-64
2023/04/14 01:40:04;;;;;;;2.35;0.77;;;19.10;55.20;;;;;;5097315;28;20043;-64
2023/04/14 01:42:32;;;;;;;2.80;0.90;;;19.10;55.20;;;;;;5114062;28;20183;-64
2023/04/14 01:45:00;;;;;;;2.50;0.68;;;19.10;55.20;;;;;;5113421;28;20075;-64
2023/04/14 01:47:26;;;;;;;3.45;1.05;;;19.10;55.20;;;;;;5089192;28;20040;-64
2023/04/14 01:49:52;;;;;;;2.10;0.82;;;19.10;55.20;;;;;;5074957;28;20052;-64
2023/04/14 01:52:18;;;;;;;2.60;0.90;;;19.10;55.20;;;;;;5075681;28;20052;-64
2023/04/14 01:54:43;;;;;;;2.55;0.90;;;19.10;55.10;;;;;;5094637;28;20507;-64
2023/04/14 01:57:10;;;;;;;2.45;0.98;;;19.10;55.10;;;;;;5099665;28;20092;-64
2023/04/14 01:59:35;;;;;;;2.40;0.82;;;19.10;55.10;;;;;;5093162;28;20112;-64
2023/04/14 02:02:02;;;;;;;2.65;0.93;;;19.10;55.80;;;;;;5092510;28;20589;-65
2023/04/14 02:04:28;;;;;;;3.50;0.90;;;19.10;55.10;;;;;;5076574;28;20051;-65
2023/04/14 02:06:55;;;;;;;1.40;0.70;;;19.10;55.10;;;;;;5091697;28;20048;-65
2023/04/14 02:09:20;;;;;;;4.22;0.90;;;19.20;55.10;;;;;;5094471;28;20040;-65
2023/04/14 02:11:46;;;;;;;2.92;0.70;;;19.20;55.10;;;;;;5059883;28;20044;-65
2023/04/14 02:14:12;;;;;;;2.00;0.75;;;19.20;55.10;;;;;;5075649;28;20040;-65
2023/04/14 02:16:37;;;;;;;1.83;0.63;;;19.20;55.10;;;;;;5076444;28;20043;-65
2023/04/14 02:19:03;;;;;;;3.30;0.90;;;19.20;55.00;;;;;;5092276;28;20079;-65
2023/04/14 02:21:29;;;;;;;1.80;0.70;;;19.20;55.00;;;;;;5112951;28;20062;-65
2023/04/14 02:23:55;;;;;;;1.65;0.70;;;19.20;55.00;;;;;;5081600;28;20048;-64
2023/04/14 02:26:22;;;;;;;1.60;0.70;;;19.10;55.00;;;;;;5094214;28;20101;-65
2023/04/14 02:29:05;;;;;;;2.22;0.70;;;19.10;54.90;;;;;;5093547;28;20044;-65
2023/04/14 02:31:31;;;;;;;1.98;0.82;;;19.20;55.00;;;;;;5093243;28;20048;-64
2023/04/14 02:33:56;;;;;;;1.50;0.60;;;19.20;55.00;;;;;;5107121;28;20047;-64
2023/04/14 02:36:38;;;;;;;2.40;0.88;;;19.20;54.90;;;;;;5111644;28;20093;-64
2023/04/14 02:39:09;;;;;;;1.65;0.60;;;19.20;54.90;;;;;;5112626;28;20132;-64
2023/04/14 02:41:34;;;;;;;1.95;0.70;;;19.20;55.00;;;;;;5112387;28;20390;-64
2023/04/14 02:44:20;;;;;;;1.83;0.60;;;19.20;55.00;;;;;;5064193;28;20052;-64
2023/04/14 02:47:02;;;;;;;2.40;0.85;;;19.20;55.00;;;;;;5077698;28;20437;-64
2023/04/14 02:49:37;;;;;;;2.03;0.70;;;19.20;55.10;;;;;;5093892;28;20032;-65
2023/04/14 02:52:06;;;;;;;3.53;0.70;;;19.20;55.00;;;;;;5080029;28;20081;-65
2023/04/14 02:54:35;;;;;;;3.70;0.82;;;19.20;55.00;;;;;;5073822;28;20036;-65
2023/04/14 02:57:01;;;;;;;2.45;0.65;;;19.30;55.10;;;;;;5071507;28;20048;-66
2023/04/14 02:59:28;;;;;;;3.05;0.90;;;19.30;55.00;;;;;;5089461;28;20082;-65
2023/04/14 03:01:53;;;;;;;1.25;0.70;;;19.30;55.10;;;;;;5093708;28;20072;-65
2023/04/14 03:04:19;;;;;;;2.38;0.80;;;19.30;55.10;;;;;;5074377;28;20145;-65
2023/04/14 03:06:45;;;;;;;2.15;0.60;;;19.30;55.00;;;;;;5075295;28;20151;-65
2023/04/14 03:09:11;;;;;;;2.08;0.70;;;19.30;55.00;;;;;;5093080;28;20527;-65
2023/04/14 03:11:36;;;;;;;1.75;0.60;;;19.30;55.00;;;;;;5074919;28;20395;-63
2023/04/14 03:14:02;;;;;;;1.90;0.70;;;19.30;55.10;;;;;;5104892;28;20040;-65
2023/04/14 03:16:28;;;;;;;1.58;0.70;;;19.40;55.10;;;;;;5113054;28;20127;-65
2023/04/14 03:18:53;;;;;;;2.03;0.80;;;19.40;55.10;;;;;;5100813;28;20040;-65
2023/04/14 03:21:19;;;;;;;1.85;0.75;;;19.40;55.00;;;;;;5092343;28;20130;-65
2023/04/14 03:23:45;;;;;;;1.00;0.60;;;19.40;55.00;;;;;;5091254;28;20062;-65
2023/04/14 03:26:17;;;;;;;1.85;0.60;;;19.40;55.10;;;;;;5074478;28;20424;-64
2023/04/14 03:28:42;;;;;;;1.98;0.73;;;19.40;55.00;;;;;;5093045;28;20122;-65
2023/04/14 03:31:08;;;;;;;1.23;0.60;;;19.50;55.10;;;;;;5090836;28;20123;-65
2023/04/14 03:33:34;;;;;;;2.45;0.68;;;19.50;55.10;;;;;;5099625;28;20044;-65
2023/04/14 03:36:00;;;;;;;1.88;0.70;;;19.50;55.00;;;;;;5094213;28;20114;-65
2023/04/14 03:38:26;;;;;;;3.17;0.77;;;19.50;55.00;;;;;;5112005;28;20479;-65
2023/04/14 03:40:52;;;;;;;2.97;0.63;;;19.50;55.00;;;;;;5113209;28;20410;-65
2023/04/14 03:43:21;;;;;;;1.30;0.75;;;19.50;55.00;;;;;;5111498;28;20489;-65
2023/04/14 03:45:50;;;;;;;2.05;0.60;;;19.50;55.00;;;;;;5112251;28;20383;-65
2023/04/14 03:48:17;;;;;;;1.63;0.80;;;19.60;55.10;;;;;;5112337;28;20039;-65
2023/04/14 03:50:45;;;;;;;1.92;0.60;;;19.60;55.00;;;;;;5111715;28;20562;-65
2023/04/14 03:53:13;;;;;;;1.65;0.50;;;19.60;55.00;;;;;;5090025;28;20412;-65
2023/04/14 03:55:39;;;;;;;1.77;0.60;;;19.60;55.00;;;;;;5074807;28;20043;-65
2023/04/14 03:58:06;;;;;;;2.75;0.68;;;19.60;55.00;;;;;;5074669;28;20036;-65
2023/04/14 04:00:31;;;;;;;2.08;0.55;;;19.60;55.00;;;;;;5073961;28;20123;-65
2023/04/14 04:02:57;;;;;;;1.98;0.50;;;19.70;55.00;;;;;;5090769;28;20166;-65
2023/04/14 04:05:22;;;;;;;1.50;0.60;;;19.70;55.00;;;;;;5090329;28;20044;-65
2023/04/14 04:07:51;;;;;;;2.28;0.60;;;19.70;55.00;;;;;;5089540;28;20104;-65
2023/04/14 04:10:16;;;;;;;1.67;0.57;;;19.70;55.00;;;;;;5073559;28;20518;-65
2023/04/14 04:12:42;;;;;;;1.05;0.63;;;19.70;55.00;;;;;;5090561;28;20048;-65
2023/04/14 04:15:08;;;;;;;1.60;0.50;;;19.70;54.90;;;;;;5104330;28;20044;-65
2023/04/14 04:17:34;;;;;;;1.35;0.60;;;19.70;54.90;;;;;;5111442;28;20040;-65
2023/04/14 04:20:00;;;;;;;1.00;0.55;;;19.70;54.90;;;;;;5094564;28;20063;-65
2023/04/14 04:22:26;;;;;;;2.55;0.70;;;19.70;54.90;;;;;;5074344;28;20135;-65
2023/04/14 04:24:51;;;;;;;1.67;0.65;;;19.80;54.90;;;;;;5106959;28;20127;-65
2023/04/14 04:27:17;;;;;;;1.42;0.57;;;19.80;54.90;;;;;;5110142;28;20509;-65
2023/04/14 04:29:42;;;;;;;1.00;0.50;;;19.80;54.90;;;;;;5080083;28;20059;-65
2023/04/14 04:32:08;;;;;;;1.67;0.60;;;19.80;54.80;;;;;;5091787;28;20036;-65
2023/04/14 04:34:34;;;;;;;2.97;0.70;;;19.80;55.50;;;;;;5103136;28;20513;-65
2023/04/14 04:37:00;;;;;;;1.90;0.80;;;19.80;54.80;;;;;;5094376;28;20487;-65
2023/04/14 04:39:26;;;;;;;1.70;0.60;;;19.80;54.80;;;;;;5062382;28;20040;-66
2023/04/14 04:42:03;;;;;;;2.10;0.57;;;19.80;54.80;;;;;;5071510;28;20044;-65
2023/04/14 04:44:29;;;;;;;0.80;0.50;;;19.80;54.80;;;;;;5082333;28;20052;-65
2023/04/14 04:46:55;;;;;;;1.70;0.40;;;19.80;54.80;;;;;;5090460;28;20105;-65
2023/04/14 04:49:21;;;;;;;1.42;0.68;;;19.80;54.80;;;;;;5091587;28;20437;-65
2023/04/14 04:51:47;;;;;;;2.78;0.63;;;19.80;54.80;;;;;;5091955;28;20052;-65
2023/04/14 04:54:12;;;;;;;1.45;0.63;;;19.90;54.90;;;;;;5099972;28;20494;-65
2023/04/14 04:56:38;;;;;;;1.85;0.50;;;19.80;54.80;;;;;;5111554;28;20469;-65
2023/04/14 04:59:03;;;;;;;1.95;0.60;;;19.80;54.80;;;;;;5106227;28;20036;-65
2023/04/14 05:01:29;;;;;;;1.48;0.57;;;19.80;54.80;;;;;;5095661;28;20093;-65
2023/04/14 05:03:54;;;;;;;2.28;0.68;;;19.80;54.70;;;;;;5099370;28;20509;-65
2023/04/14 05:06:20;;;;;;;2.25;0.50;;;19.80;54.70;;;;;;5116297;28;20040;-65
2023/04/14 05:08:46;;;;;;;2.28;0.60;;;19.80;54.70;;;;;;5115674;28;20036;-65
2023/04/14 05:11:11;;;;;;;0.95;0.43;;;19.80;54.70;;;;;;5114953;28;20036;-65
2023/04/14 05:13:37;;;;;;;2.35;0.50;;;19.80;54.60;;;;;;5115796;28;20135;-66
2023/04/14 05:16:03;;;;;;;1.73;0.50;;;19.80;54.70;;;;;;5115141;28;20416;-64
2023/04/14 05:18:30;;;;;;;1.98;0.60;;;19.80;54.70;;;;;;5114420;28;20040;-64
2023/04/14 05:21:00;;;;;;;1.80;0.50;;;19.80;54.70;;;;;;5114293;28;20043;-64
2023/04/14 05:23:25;;;;;;;1.25;0.50;;;19.80;54.60;;;;;;5114606;28;20047;-63
2023/04/14 05:25:54;;;;;;;1.63;0.68;;;19.90;54.70;;;;;;5115797;28;20390;-64
2023/04/14 05:28:20;;;;;;;1.42;0.50;;;19.90;54.70;;;;;;5115755;28;20104;-64
2023/04/14 05:30:45;;;;;;;1.83;0.70;;;19.90;54.70;;;;;;5104381;28;20071;-64
2023/04/14 05:33:11;;;;;;;1.15;0.50;;;19.90;54.70;;;;;;5115274;28;20115;-64
2023/04/14 05:35:36;;;;;;;2.83;0.60;;;19.90;54.70;;;;;;5095537;28;20040;-64
2023/04/14 05:38:02;;;;;;;2.97;0.85;;;19.90;54.60;;;;;;5093075;28;20097;-64
2023/04/14 05:40:28;;;;;;;4.55;0.60;;;19.90;54.50;;;;;;5094768;28;20043;-64
2023/04/14 05:42:54;;;;;;;5.53;0.80;;;19.90;54.50;;;;;;5094843;28;20089;-64
2023/04/14 05:45:20;;;;;;;2.35;0.77;;;19.90;54.50;;;;;;5094448;28;20044;-64
2023/04/14 05:47:45;;;;;;;1.83;0.65;;;19.90;54.50;;;;;;5095205;28;20422;-64
2023/04/14 05:50:11;;;;;;;1.80;0.60;;;19.90;54.50;;;;;;5107068;28;20131;-64
2023/04/14 05:52:36;;;;;;;2.20;0.60;;;19.90;54.50;;;;;;5114386;28;20109;-64
2023/04/14 05:55:02;;;;;;;2.53;0.80;;;19.90;54.50;;;;;;5114837;28;20050;-65
2023/04/14 05:57:28;;;;;;;1.67;0.63;;;20.00;54.60;;;;;;5113985;28;20126;-64
2023/04/14 05:59:53;;;;;;;2.40;0.60;;;20.00;54.60;;;;;;5114154;28;20097;-64
2023/04/14 06:02:19;;;;;;;3.28;0.90;;;20.00;54.60;;;;;;5108223;28;20047;-64
2023/04/14 06:04:44;;;;;;;2.42;0.68;;;20.00;54.60;;;;;;5094514;28;20043;-64
2023/04/14 06:07:10;;;;;;;1.73;0.60;;;20.00;54.60;;;;;;5093031;28;20048;-64
2023/04/14 06:09:35;;;;;;;4.10;0.80;;;20.00;54.60;;;;;;5102877;28;20044;-64
2023/04/14 06:12:01;;;;;;;2.08;0.57;;;20.00;54.70;;;;;;5113997;28;20066;-63
2023/04/14 06:14:26;;;;;;;1.67;0.60;;;20.00;54.80;;;;;;5108014;28;20040;-64
2023/04/14 06:16:53;;;;;;;2.15;0.60;;;20.00;54.90;;;;;;5093274;28;20067;-63
2023/04/14 06:19:19;;;;;;;2.92;0.82;;;20.00;55.00;;;;;;5097123;28;20103;-63
2023/04/14 06:21:45;;;;;;;2.90;0.77;;;20.10;55.10;;;;;;5114331;28;20201;-63
2023/04/14 06:24:11;;;;;;;1.42;0.50;;;20.10;55.20;;;;;;5114108;28;20055;-63
2023/04/14 06:26:36;;;;;;;3.85;0.55;;;20.10;55.20;;;;;;5112846;28;20483;-63
2023/04/14 06:29:02;;;;;;;2.65;0.77;;;20.10;55.30;;;;;;5114213;28;20057;-64
2023/04/14 06:31:27;;;;;;;3.28;0.70;;;20.10;55.40;;;;;;5114684;28;20130;-61
2023/04/14 06:33:53;;;;;;;2.03;0.63;;;20.10;55.40;;;;;;5112242;28;20394;-64
2023/04/14 06:36:18;;;;;;;1.42;0.45;;;20.20;55.40;;;;;;5113833;28;20035;-64
2023/04/14 06:38:44;;;;;;;3.85;0.70;;;20.20;55.50;;;;;;5114636;28;20366;-65
2023/04/14 06:41:10;;;;;;;2.05;0.60;;;20.20;55.60;;;;;;5112387;28;20092;-64
2023/04/14 06:43:35;;;;;;;3.33;1.17;;;20.20;55.60;;;;;;5112571;28;20039;-64
2023/04/14 06:46:01;;;;;;;2.30;0.80;;;20.30;55.60;;;;;;5113618;28;20044;-64
2023/04/14 06:48:26;;;;;;;5.32;0.70;;;20.30;55.70;;;;;;5104902;28;20046;-65
2023/04/14 06:50:55;;;;;;;2.65;0.90;;;20.30;55.70;;;;;;5093048;28;20043;-67
2023/04/14 06:53:21;;;;;;;3.20;0.63;;;20.30;55.70;;;;;;5093988;28;20491;-66
2023/04/14 06:55:57;;;;;;;2.58;0.80;;;20.30;55.60;;;;;;5092902;28;20123;-66
2023/04/14 06:58:24;;;;;;;3.53;0.77;;;20.30;55.60;;;;;;5093156;28;20042;-66
2023/04/14 07:01:00;;;;;;;2.05;0.70;;;20.30;55.60;;;;;;5107559;28;20501;-65
2023/04/14 07:03:26;;;;;;;3.53;0.82;;;20.40;55.60;;;;;;5113513;28;20092;-64
2023/04/14 07:05:52;;;;;;;1.58;0.73;;;20.40;55.60;;;;;;5110316;28;20581;-65
2023/04/14 07:08:19;;;;;;;3.88;0.75;;;20.40;55.60;;;;;;5093322;28;20480;-64
2023/04/14 07:10:44;;;;;;;2.38;0.85;;;20.40;55.70;;;;;;5092345;28;20044;-65
2023/04/14 07:13:10;;;;;;;3.00;0.60;;;20.40;55.80;;;;;;5091692;28;20035;-63
2023/04/14 07:15:36;;;;;;;4.10;0.77;;;20.40;55.60;;;;;;5091685;28;20071;-63
2023/04/14 07:18:01;;;;;;;1.75;0.40;;;20.40;55.60;;;;;;5092660;28;20062;-63
2023/04/14 07:20:27;;;;;;;3.08;0.70;;;20.40;55.60;;;;;;5092377;28;20028;-63
2023/04/14 07:22:54;;;;;;;2.70;0.68;;;20.40;55.70;;;;;;5090541;28;20060;-64
2023/04/14 07:25:20;;;;;;;4.25;0.90;;;20.50;55.80;;;;;;5092670;28;20044;-63
2023/04/14 07:27:45;;;;;;;2.95;0.63;;;20.50;55.80;;;;;;5091819;28;20044;-62
2023/04/14 07:30:11;;;;;;;2.20;0.63;;;20.50;55.90;;;;;;5091348;28;20399;-64
2023/04/14 07:32:37;;;;;;;1.95;0.95;;;20.50;55.90;;;;;;5091849;28;20538;-63
2023/04/14 07:35:03;;;;;;;4.45;0.60;;;20.50;55.90;;;;;;5092340;28;20051;-64
2023/04/14 07:37:29;;;;;;;2.80;0.88;;;20.50;56.00;;;;;;5089464;28;20044;-64
2023/04/14 07:39:55;;;;;;;5.45;0.80;;;20.50;56.00;;;;;;5095844;28;20050;-65
2023/04/14 07:42:20;;;;;;;5.65;0.90;;;20.60;56.00;;;;;;5090358;28;20047;-63
2023/04/14 07:44:46;;;;;;;2.88;0.80;;;20.50;55.90;;;;;;5092093;28;20422;-62
2023/04/14 07:47:11;;;;;;;4.13;0.90;;;20.60;56.00;;;;;;5091284;28;20036;-62
2023/04/14 07:49:37;;;;;;;3.97;0.80;;;20.60;56.00;;;;;;5092635;28;20059;-63
2023/04/14 07:52:03;;;;;;;3.47;0.80;;;20.60;55.90;;;;;;5091419;28;20052;-63
2023/04/14 07:54:29;;;;;;;2.55;0.80;;;20.60;55.50;;;;;;5092736;28;20043;-63
2023/04/14 07:56:56;;;;;;;4.00;0.73;;;20.60;55.30;;;;;;5092573;28;20047;-63
2023/04/14 07:59:22;;;;;;;4.18;1.10;;;20.60;55.30;;;;;;5092160;28;20040;-63
2023/04/14 08:01:48;;;;;;;2.45;0.80;;;20.60;55.30;;;;;;5092314;28;20054;-63
2023/04/14 08:04:13;;;;;;;3.47;0.80;;;20.60;55.30;;;;;;5092404;28;20044;-63
2023/04/14 08:06:39;;;;;;;3.42;0.75;;;20.60;55.30;;;;;;5091573;28;20135;-63
2023/04/14 08:09:04;;;;;;;4.00;0.90;;;20.60;55.10;;;;;;5092184;28;20039;-62
2023/04/14 08:11:30;;;;;;;7.07;0.85;;;20.60;54.70;;;;;;5096348;28;20040;-63
2023/04/14 08:13:56;;;;;;;5.82;0.80;;;20.60;54.60;;;;;;5089388;28;20043;-64
2023/04/14 08:16:21;;;;;;;6.22;0.70;;;20.60;54.50;;;;;;5092165;28;20040;-63
2023/04/14 08:18:47;;;;;;;4.60;0.60;;;20.60;54.60;;;;;;5091686;28;20032;-63
2023/04/14 08:21:13;;;;;;;2.00;0.60;;;20.60;54.60;;;;;;5091587;28;20071;-62
2023/04/14 08:23:38;;;;;;;2.90;0.60;;;20.60;54.60;;;;;;5092579;28;20567;-62
2023/04/14 08:26:04;;;;;;;4.10;1.05;;;20.70;54.60;;;;;;5090739;28;20046;-63
2023/04/14 08:28:29;;;;;;;4.30;1.02;;;20.70;54.70;;;;;;5092162;28;20054;-63
2023/04/14 08:30:55;;;;;;;5.63;0.90;;;20.70;54.70;;;;;;5092258;28;20490;-63
2023/04/14 08:33:20;;;;;;;3.03;0.65;;;20.70;54.80;;;;;;5091181;28;20067;-63
2023/04/14 08:35:46;;;;;;;4.13;0.90;;;20.70;54.70;;;;;;5096344;28;20052;-63
2023/04/14 08:38:12;;;;;;;2.45;0.90;;;20.70;54.70;;;;;;5096029;28;20050;-63
2023/04/14 08:40:39;;;;;;;3.40;0.65;;;20.80;54.80;;;;;;5095766;28;20127;-63
2023/04/14 08:43:04;;;;;;;3.22;0.75;;;20.80;54.80;;;;;;5095028;28;20044;-63
2023/04/14 08:45:31;;;;;;;2.63;0.60;;;20.80;54.80;;;;;;5096344;28;20457;-62
2023/04/14 08:47:57;;;;;;;1.48;0.50;;;20.80;54.80;;;;;;5093765;28;20756;-63
2023/04/14 08:50:25;;;;;;;3.85;0.70;;;20.80;54.80;;;;;;5096103;28;20388;-62
2023/04/14 08:52:52;;;;;;;4.68;0.80;;;20.80;54.70;;;;;;5096113;28;20071;-63
2023/04/14 08:55:18;;;;;;;6.57;0.90;;;20.80;54.70;;;;;;5076943;28;20048;-63
2023/04/14 08:57:45;;;;;;;5.03;1.00;;;20.90;54.80;;;;;;5094931;28;20081;-63
2023/04/14 09:00:11;;;;;;;8.60;0.90;;;20.90;54.80;;;;;;5094645;28;20111;-63
2023/04/14 09:02:38;;;;;;;5.47;1.27;;;20.90;54.90;;;;;;5095428;28;20514;-62
2023/04/14 09:05:05;;;;;;;6.88;1.10;;;20.90;54.90;;;;;;5093439;28;20036;-62
2023/04/14 09:07:32;;;;;;;7.10;0.93;;;20.90;55.00;;;;;;5061233;28;20052;-63
2023/04/14 09:09:57;;;;;;;5.18;0.90;;;20.90;55.00;;;;;;5087064;28;20498;-62
2023/04/14 09:12:23;;;;;;;5.25;0.80;;;20.90;54.90;;;;;;5094192;28;20079;-65
2023/04/14 09:14:49;;;;;;;4.50;0.73;;;20.90;54.90;;;;;;5077358;28;20070;-65
2023/04/14 09:17:14;;;;;;;6.57;0.90;;;21.00;55.00;;;;;;5092502;28;20427;-63
2023/04/14 09:19:40;;;;;;;7.47;0.60;;;21.00;54.90;;;;;;5077080;28;20157;-67
2023/04/14 09:22:05;;;;;;;4.60;0.80;;;21.00;54.80;;;;;;5092958;28;20055;-63
2023/04/14 09:24:33;;;;;;;6.00;0.70;;;21.10;54.70;;;;;;5095523;28;20055;-65
2023/04/14 09:27:04;;;;;;;7.30;0.90;;;21.20;54.70;;;;;;5093777;28;20495;-65
2023/04/14 09:29:33;;;;;;;3.92;0.90;;;21.20;54.60;;;;;;5094632;28;20047;-65
2023/04/14 09:31:59;;;;;;;4.72;0.80;;;21.30;54.50;;;;;;5093408;28;20483;-65
2023/04/14 09:34:24;;;;;;;5.50;0.85;;;21.30;54.50;;;;;;5095509;28;20051;-65
2023/04/14 09:37:04;;;;;;;6.10;0.63;;;21.20;54.50;;;;;;5094816;28;20048;-65
2023/04/14 09:39:31;;;;;;;6.20;0.75;;;21.20;54.50;;;;;;5093663;28;20471;-66
2023/04/14 09:41:57;;;;;;;5.28;1.10;;;21.20;54.60;;;;;;5095120;28;20040;-66
2023/04/14 09:44:23;;;;;;;4.00;0.70;;;21.20;54.60;;;;;;5093989;28;20051;-65
2023/04/14 09:46:58;;;;;;;4.20;0.75;;;21.20;54.60;;;;;;5107949;28;20122;-65
2023/04/14 09:49:24;;;;;;;3.28;0.77;;;21.20;54.60;;;;;;5115487;28;20043;-65
2023/04/14 09:51:52;;;;;;;8.05;1.10;;;21.20;54.60;;;;;;5100072;27;20036;-66
2023/04/14 09:54:27;;;;;;;6.10;0.65;;;21.20;54.60;;;;;;5093295;28;20048;-64
2023/04/14 09:56:53;;;;;;;6.28;0.80;;;21.20;54.70;;;;;;5094037;28;20445;-64
2023/04/14 09:59:35;;;;;;;4.47;0.82;;;21.20;54.90;;;;;;5091637;28;20048;-64
2023/04/14 10:02:07;;;;;;;4.80;0.90;;;21.20;55.10;;;;;;5094180;28;20046;-64
2023/04/14 10:04:33;;;;;;;4.38;0.70;;;21.20;55.10;;;;;;5094122;28;20047;-65
2023/04/14 10:06:59;;;;;;;4.72;0.93;;;21.20;55.10;;;;;;5092908;28;20055;-65
2023/04/14 10:09:26;;;;;;;7.15;0.80;;;21.20;55.10;;;;;;5093090;28;20048;-64
2023/04/14 10:12:08;;;;;;;4.57;0.80;;;21.20;55.10;;;;;;5091188;28;20062;-64
2023/04/14 10:14:35;;;;;;;5.60;1.00;;;21.20;55.10;;;;;;5093571;28;20044;-65
2023/04/14 10:17:01;;;;;;;3.45;0.65;;;21.20;55.20;;;;;;5094047;28;20044;-64
2023/04/14 10:19:27;;;;;;;5.10;0.80;;;21.10;55.10;;;;;;5093644;28;20079;-64
2023/04/14 10:21:52;;;;;;;4.75;0.80;;;21.10;55.00;;;;;;5093798;28;20588;-64
2023/04/14 10:24:20;;;;;;;5.47;0.85;;;21.20;55.10;;;;;;5075577;28;20552;-64
2023/04/14 10:26:46;;;;;;;4.80;0.73;;;21.20;55.20;;;;;;5084485;28;20051;-64
2023/04/14 10:29:12;;;;;;;5.68;0.85;;;21.20;55.10;;;;;;5094089;28;20098;-64
2023/04/14 10:31:39;;;;;;;3.13;0.63;;;21.20;55.20;;;;;;5092907;28;20042;-66
2023/04/14 10:34:11;;;;;;;4.32;0.88;;;21.20;55.20;;;;;;5073794;28;20040;-65
2023/04/14 10:36:37;;;;;;;2.33;0.68;;;21.20;55.30;;;;;;5093098;28;20043;-66
2023/04/14 10:39:04;;;;;;;2.47;0.65;;;21.20;55.20;;;;;;5076137;28;20056;-66
2023/04/14 10:41:46;;;;;;;6.57;0.82;;;21.20;55.10;;;;;;5092587;28;20093;-66
2023/04/14 10:44:25;;;;;;;3.30;0.80;;;21.20;55.10;;;;;;5094097;28;20149;-66
2023/04/14 10:46:51;;;;;;;3.65;0.70;;;21.20;55.10;;;;;;5090924;28;20136;-66
2023/04/14 10:49:17;;;;;;;4.07;1.10;;;21.20;55.10;;;;;;5072351;28;20068;-66
2023/04/14 10:51:43;;;;;;;3.70;0.90;;;21.20;55.10;;;;;;5072629;28;20498;-66
2023/04/14 10:54:17;;;;;;;5.07;0.80;;;21.20;55.20;;;;;;5080410;28;20054;-66
2023/04/14 10:57:07;;;;;;;6.28;0.93;;;21.20;55.20;;;;;;5092061;28;20075;-64
2023/04/14 10:59:32;;;;;;;1.80;0.60;;;21.20;55.30;;;;;;5079841;28;20052;-66
2023/04/14 11:01:59;;;;;;;1.45;0.60;;;21.20;55.30;;;;;;5090914;28;20044;-64
2023/04/14 11:04:24;;;;;;;9.02;1.05;;;21.20;55.20;;;;;;5093727;28;20442;-63
2023/04/14 11:06:51;;;;;;;5.95;1.00;;;21.20;55.30;;;;;;5094006;28;20537;-63
2023/04/14 11:09:36;;;;;;;5.57;0.98;;;21.10;55.30;;;;;;5090452;28;20062;-64
2023/04/14 11:12:26;;;;;;;3.58;0.80;;;21.20;55.40;;;;;;5080584;28;21411;-65
2023/04/14 11:15:00;;;;;;;5.10;1.00;;;21.20;55.50;;;;;;5100655;28;20056;-65
2023/04/14 11:17:28;;;;;;;6.10;1.00;;;21.20;55.60;;;;;;5092824;28;20051;-64
2023/04/14 11:19:54;;;;;;;4.38;1.13;;;21.20;55.60;;;;;;5090899;28;20036;-64
2023/04/14 11:22:57;;;;;;;4.47;0.80;;;21.20;55.50;;;;;;5090233;28;20499;-64
2023/04/14 11:25:23;;;;;;;5.72;0.93;;;21.20;55.50;;;;;;5007741;28;20567;-64
2023/04/14 11:27:48;;;;;;;10.32;1.10;;;21.20;55.50;;;;;;5075933;28;20052;-64
2023/04/14 11:30:15;;;;;;;3.90;0.82;;;21.20;55.50;;;;;;5090228;28;20382;-64
2023/04/14 11:32:50;;;;;;;4.15;0.95;;;21.20;55.50;;;;;;5088928;28;20051;-66
2023/04/14 11:35:16;;;;;;;3.33;0.93;;;21.30;55.50;;;;;;5091400;28;20044;-66
2023/04/14 11:37:41;;;;;;;5.32;1.20;;;21.30;55.40;;;;;;5091884;28;20054;-67
2023/04/14 11:40:11;;;;;;;6.50;0.95;;;21.30;55.30;;;;;;5092808;28;20046;-66
2023/04/14 11:42:37;;;;;;;6.43;1.17;;;21.30;55.30;;;;;;5091990;28;20044;-67
2023/04/14 11:45:04;;;;;;;3.00;0.70;;;21.30;55.30;;;;;;5091630;28;20040;-67
2023/04/14 11:47:29;;;;;;;3.20;0.80;;;21.30;55.30;;;;;;5092858;28;20089;-67
2023/04/14 11:49:55;;;;;;;5.35;0.93;;;21.30;55.20;;;;;;5090766;28;20044;-66
2023/04/14 11:52:20;;;;;;;6.72;0.90;;;21.30;55.20;;;;;;5090464;28;20059;-65
2023/04/14 11:54:46;;;;;;;2.67;0.90;;;21.30;55.20;;;;;;5092763;28;20040;-64
2023/04/14 11:57:12;;;;;;;6.13;0.80;;;21.30;55.10;;;;;;5092134;28;20048;-65
2023/04/14 11:59:45;;;;;;;7.22;1.15;;;21.30;55.10;;;;;;5093364;28;20036;-65
2023/04/14 12:02:18;;;;;;;4.38;0.85;;;21.30;55.10;;;;;;5092464;28;20483;-64
2023/04/14 12:04:44;;;;;;;4.47;1.13;;;21.30;55.00;;;;;;5092400;28;20544;-65
2023/04/14 12:07:11;;;;;;;6.85;1.10;;;21.30;55.10;;;;;;5092674;28;20040;-65
2023/04/14 12:09:40;;;;;;;4.07;0.70;;;21.30;55.00;;;;;;5092969;28;20044;-65
2023/04/14 12:12:10;;;;;;;5.15;0.90;;;21.20;55.00;;;;;;5092183;28;20548;-65
2023/04/14 12:14:39;;;;;;;3.75;0.75;;;21.20;55.00;;;;;;5093015;28;20052;-65
2023/04/14 12:17:06;;;;;;;3.75;0.80;;;21.20;54.90;;;;;;5091510;28;20040;-65
2023/04/14 12:19:33;;;;;;;4.20;0.75;;;21.20;54.90;;;;;;5091081;28;20061;-65
2023/04/14 12:21:59;;;;;;;4.22;0.80;;;21.20;54.90;;;;;;5092292;28;20059;-65
2023/04/14 12:24:32;;;;;;;4.20;0.80;;;21.20;54.80;;;;;;5092823;28;20048;-65
2023/04/14 12:26:58;;;;;;;3.67;0.80;;;21.30;54.90;;;;;;5090227;28;20468;-65
2023/04/14 12:29:24;;;;;;;2.20;0.73;;;21.30;54.80;;;;;;5092400;28;20184;-67
2023/04/14 12:31:50;;;;;;;2.88;0.70;;;21.30;54.90;;;;;;5091692;28;20040;-67
2023/04/14 12:34:17;;;;;;;4.00;0.82;;;21.20;54.80;;;;;;5056832;28;20040;-66
2023/04/14 12:36:50;;;;;;;4.43;1.00;;;21.20;54.60;;;;;;5088821;28;20044;-65
2023/04/14 12:39:15;;;;;;;6.43;1.17;;;21.20;54.60;;;;;;5089749;28;20062;-65
2023/04/14 12:41:41;;;;;;;5.70;0.70;;;21.30;54.70;;;;;;5091890;28;20395;-65
2023/04/14 12:44:17;;;;;;;5.03;1.10;;;21.20;54.70;;;;;;5090417;28;20036;-65
2023/04/14 12:46:48;;;;;;;5.45;1.15;;;21.20;54.70;;;;;;5088506;28;20048;-65
2023/04/14 12:49:30;;;;;;;1.48;0.75;;;21.20;54.70;;;;;;5091621;28;20056;-65